sensor_id;sensor_type;location;lat;lon;timestamp;pressure;altitude;pressure_sealevel;temperature;humidity
61906;BME280;47863;55.766;37.672;2023-03-04T00:00:36;98187.75;;;-0.67;72.34
61906;BME280;47863;55.766;37.672;2023-03-04T00:03:08;98193.91;;;-0.56;72.31
61906;BME280;47863;55.766;37.672;2023-03-04T00:05:36;98188.78;;;-0.58;72.28
61906;BME280;47863;55.766;37.672;2023-03-04T00:08:02;98199.28;;;-0.58;72.34
61906;BME280;47863;55.766;37.672;2023-03-04T00:10:28;98192.50;;;-0.61;72.06
61906;BME280;47863;55.766;37.672;2023-03-04T00:12:53;98188.91;;;-0.60;72.11
61906;BME280;47863;55.766;37.672;2023-03-04T00:15:19;98186.53;;;-0.63;72.36
61906;BME280;47863;55.766;37.672;2023-03-04T00:17:44;98189.19;;;-0.63;72.33
61906;BME280;47863;55.766;37.672;2023-03-04T00:20:11;98156.28;;;-0.78;72.65
61906;BME280;47863;55.766;37.672;2023-03-04T00:22:37;98167.69;;;-0.68;72.85
61906;BME280;47863;55.766;37.672;2023-03-04T00:25:03;98170.59;;;-0.71;73.22
61906;BME280;47863;55.766;37.672;2023-03-04T00:27:29;98168.91;;;-0.72;73.05
61906;BME280;47863;55.766;37.672;2023-03-04T00:29:55;98162.94;;;-0.74;73.01
61906;BME280;47863;55.766;37.672;2023-03-04T00:32:21;98158.50;;;-0.73;73.11
61906;BME280;47863;55.766;37.672;2023-03-04T00:34:47;98155.06;;;-0.74;73.07
61906;BME280;47863;55.766;37.672;2023-03-04T00:37:13;98148.00;;;-0.73;72.82
61906;BME280;47863;55.766;37.672;2023-03-04T00:39:38;98151.47;;;-0.73;72.87
61906;BME280;47863;55.766;37.672;2023-03-04T00:42:04;98137.47;;;-0.73;73.03
61906;BME280;47863;55.766;37.672;2023-03-04T00:44:30;98134.41;;;-0.78;73.02
61906;BME280;47863;55.766;37.672;2023-03-04T00:46:55;98130.50;;;-0.84;73.13
61906;BME280;47863;55.766;37.672;2023-03-04T00:49:21;98138.81;;;-0.79;73.03
61906;BME280;47863;55.766;37.672;2023-03-04T00:51:46;98143.38;;;-0.81;73.68
61906;BME280;47863;55.766;37.672;2023-03-04T00:54:12;98131.34;;;-0.84;73.57
61906;BME280;47863;55.766;37.672;2023-03-04T00:56:37;98122.88;;;-0.87;73.40
61906;BME280;47863;55.766;37.672;2023-03-04T00:59:03;98129.09;;;-0.88;73.29
61906;BME280;47863;55.766;37.672;2023-03-04T01:01:28;98138.28;;;-0.83;73.29
61906;BME280;47863;55.766;37.672;2023-03-04T01:03:54;98124.63;;;-0.97;74.00
61906;BME280;47863;55.766;37.672;2023-03-04T01:06:20;98108.09;;;-1.09;73.76
61906;BME280;47863;55.766;37.672;2023-03-04T01:08:45;98144.94;;;-0.78;74.08
61906;BME280;47863;55.766;37.672;2023-03-04T01:11:11;98112.88;;;-0.93;73.55
61906;BME280;47863;55.766;37.672;2023-03-04T01:13:37;98135.31;;;-0.68;73.57
61906;BME280;47863;55.766;37.672;2023-03-04T01:16:03;98130.63;;;-0.65;73.57
61906;BME280;47863;55.766;37.672;2023-03-04T01:18:29;98139.09;;;-0.61;73.78
61906;BME280;47863;55.766;37.672;2023-03-04T01:20:55;98109.91;;;-0.79;73.76
61906;BME280;47863;55.766;37.672;2023-03-04T01:23:21;98136.00;;;-0.66;73.90
61906;BME280;47863;55.766;37.672;2023-03-04T01:25:46;98119.34;;;-0.76;74.30
61906;BME280;47863;55.766;37.672;2023-03-04T01:28:12;98133.25;;;-0.65;74.26
61906;BME280;47863;55.766;37.672;2023-03-04T01:30:38;98133.38;;;-0.66;74.20
61906;BME280;47863;55.766;37.672;2023-03-04T01:33:03;98133.25;;;-0.65;74.65
61906;BME280;47863;55.766;37.672;2023-03-04T01:35:29;98134.19;;;-0.66;74.54
61906;BME280;47863;55.766;37.672;2023-03-04T01:37:54;98126.59;;;-0.69;74.62
61906;BME280;47863;55.766;37.672;2023-03-04T01:40:20;98114.78;;;-0.74;74.72
61906;BME280;47863;55.766;37.672;2023-03-04T01:42:45;98113.00;;;-0.74;74.92
61906;BME280;47863;55.766;37.672;2023-03-04T01:45:14;98116.31;;;-0.72;74.65
61906;BME280;47863;55.766;37.672;2023-03-04T01:47:40;98103.56;;;-0.76;74.54
61906;BME280;47863;55.766;37.672;2023-03-04T01:50:18;98110.41;;;-0.64;74.18
61906;BME280;47863;55.766;37.672;2023-03-04T01:52:44;98097.38;;;-0.66;74.57
61906;BME280;47863;55.766;37.672;2023-03-04T01:55:20;98115.63;;;-0.74;75.33
61906;BME280;47863;55.766;37.672;2023-03-04T01:57:47;98086.28;;;-1.00;75.79
61906;BME280;47863;55.766;37.672;2023-03-04T02:02:50;98110.19;;;-1.03;76.29
61906;BME280;47863;55.766;37.672;2023-03-04T02:05:17;98094.13;;;-1.10;76.44
61906;BME280;47863;55.766;37.672;2023-03-04T02:07:43;98099.91;;;-1.16;76.27
61906;BME280;47863;55.766;37.672;2023-03-04T02:10:10;98097.50;;;-1.19;76.38
61906;BME280;47863;55.766;37.672;2023-03-04T02:12:38;98086.41;;;-1.23;76.59
61906;BME280;47863;55.766;37.672;2023-03-04T02:15:04;98067.25;;;-1.34;76.84
61906;BME280;47863;55.766;37.672;2023-03-04T02:17:31;98078.03;;;-1.37;76.76
61906;BME280;47863;55.766;37.672;2023-03-04T02:22:39;98034.91;;;-1.77;77.04
61906;BME280;47863;55.766;37.672;2023-03-04T02:25:12;98028.84;;;-1.77;77.25
61906;BME280;47863;55.766;37.672;2023-03-04T02:27:40;98065.66;;;-1.47;77.45
61906;BME280;47863;55.766;37.672;2023-03-04T02:30:06;98068.03;;;-1.44;77.16
61906;BME280;47863;55.766;37.672;2023-03-04T02:32:32;97994.38;;;-1.84;76.53
61906;BME280;47863;55.766;37.672;2023-03-04T02:34:57;98062.16;;;-1.36;76.79
61906;BME280;47863;55.766;37.672;2023-03-04T02:37:23;98056.06;;;-1.36;77.39
61906;BME280;47863;55.766;37.672;2023-03-04T02:39:48;98030.25;;;-1.52;77.33
61906;BME280;47863;55.766;37.672;2023-03-04T02:42:14;98040.81;;;-1.43;78.21
61906;BME280;47863;55.766;37.672;2023-03-04T02:44:42;98022.16;;;-1.61;77.40
61906;BME280;47863;55.766;37.672;2023-03-04T02:47:11;98030.56;;;-1.46;77.51
61906;BME280;47863;55.766;37.672;2023-03-04T02:49:39;98015.69;;;-1.56;77.28
61906;BME280;47863;55.766;37.672;2023-03-04T02:52:17;98022.50;;;-1.54;77.03
61906;BME280;47863;55.766;37.672;2023-03-04T02:54:43;97999.19;;;-1.68;77.07
61906;BME280;47863;55.766;37.672;2023-03-04T02:57:10;98002.91;;;-1.71;77.58
61906;BME280;47863;55.766;37.672;2023-03-04T02:59:37;98026.19;;;-1.56;77.96
61906;BME280;47863;55.766;37.672;2023-03-04T03:02:04;98014.41;;;-1.62;77.85
61906;BME280;47863;55.766;37.672;2023-03-04T03:04:30;98018.03;;;-1.63;77.70
61906;BME280;47863;55.766;37.672;2023-03-04T03:06:55;98013.34;;;-1.60;78.60
61906;BME280;47863;55.766;37.672;2023-03-04T03:09:21;97979.22;;;-1.81;78.02
61906;BME280;47863;55.766;37.672;2023-03-04T03:11:47;97973.00;;;-1.80;78.00
61906;BME280;47863;55.766;37.672;2023-03-04T03:14:12;97974.41;;;-1.75;77.38
61906;BME280;47863;55.766;37.672;2023-03-04T03:16:38;97976.53;;;-1.69;77.27
61906;BME280;47863;55.766;37.672;2023-03-04T03:19:04;98005.97;;;-1.45;77.51
61906;BME280;47863;55.766;37.672;2023-03-04T03:21:30;97998.09;;;-1.45;77.30
61906;BME280;47863;55.766;37.672;2023-03-04T03:23:55;98004.56;;;-1.49;77.71
61906;BME280;47863;55.766;37.672;2023-03-04T03:26:21;98008.88;;;-1.48;78.31
61906;BME280;47863;55.766;37.672;2023-03-04T03:28:46;98001.94;;;-1.49;77.82
61906;BME280;47863;55.766;37.672;2023-03-04T03:31:12;97996.69;;;-1.49;77.88
61906;BME280;47863;55.766;37.672;2023-03-04T03:33:38;98000.84;;;-1.46;77.81
61906;BME280;47863;55.766;37.672;2023-03-04T03:36:04;97958.84;;;-1.67;77.89
61906;BME280;47863;55.766;37.672;2023-03-04T03:38:30;97986.75;;;-1.45;78.48
61906;BME280;47863;55.766;37.672;2023-03-04T03:40:55;97941.94;;;-1.74;78.65
61906;BME280;47863;55.766;37.672;2023-03-04T03:43:21;97985.69;;;-1.64;79.32
61906;BME280;47863;55.766;37.672;2023-03-04T03:45:47;97989.66;;;-1.69;79.22
61906;BME280;47863;55.766;37.672;2023-03-04T03:48:12;97974.22;;;-1.84;79.37
61906;BME280;47863;55.766;37.672;2023-03-04T03:50:38;97980.88;;;-1.80;79.57
61906;BME280;47863;55.766;37.672;2023-03-04T03:53:04;97952.69;;;-1.98;79.54
61906;BME280;47863;55.766;37.672;2023-03-04T03:55:29;97977.59;;;-1.93;80.26
61906;BME280;47863;55.766;37.672;2023-03-04T03:57:55;97979.41;;;-1.93;79.88
61906;BME280;47863;55.766;37.672;2023-03-04T04:00:21;97975.94;;;-1.94;80.31
61906;BME280;47863;55.766;37.672;2023-03-04T04:02:46;97962.22;;;-1.97;80.15
61906;BME280;47863;55.766;37.672;2023-03-04T04:05:12;97953.81;;;-2.01;80.89
61906;BME280;47863;55.766;37.672;2023-03-04T04:07:38;97939.75;;;-2.11;81.09
61906;BME280;47863;55.766;37.672;2023-03-04T04:10:04;97960.25;;;-2.05;80.73
61906;BME280;47863;55.766;37.672;2023-03-04T04:12:30;97954.50;;;-1.99;80.87
61906;BME280;47863;55.766;37.672;2023-03-04T04:14:56;97951.19;;;-2.01;80.39
61906;BME280;47863;55.766;37.672;2023-03-04T04:17:21;97915.84;;;-2.18;81.12
61906;BME280;47863;55.766;37.672;2023-03-04T04:19:47;97918.34;;;-2.16;80.58
61906;BME280;47863;55.766;37.672;2023-03-04T04:22:15;97933.56;;;-2.10;81.22
61906;BME280;47863;55.766;37.672;2023-03-04T04:24:41;97913.91;;;-2.16;81.36
61906;BME280;47863;55.766;37.672;2023-03-04T04:27:07;97916.09;;;-2.21;80.75
61906;BME280;47863;55.766;37.672;2023-03-04T04:29:32;97874.44;;;-2.35;81.03
61906;BME280;47863;55.766;37.672;2023-03-04T04:31:58;97926.41;;;-2.08;81.14
61906;BME280;47863;55.766;37.672;2023-03-04T04:34:24;97929.03;;;-2.08;81.46
61906;BME280;47863;55.766;37.672;2023-03-04T04:36:50;97895.03;;;-2.31;81.50
61906;BME280;47863;55.766;37.672;2023-03-04T04:39:16;97919.66;;;-2.22;81.47
61906;BME280;47863;55.766;37.672;2023-03-04T04:41:45;97885.81;;;-2.46;81.57
61906;BME280;47863;55.766;37.672;2023-03-04T04:44:12;97895.53;;;-2.37;82.15
61906;BME280;47863;55.766;37.672;2023-03-04T04:46:38;97909.56;;;-2.27;82.14
61906;BME280;47863;55.766;37.672;2023-03-04T04:49:05;97917.88;;;-2.22;81.90
61906;BME280;47863;55.766;37.672;2023-03-04T04:51:32;97918.53;;;-2.08;82.05
61906;BME280;47863;55.766;37.672;2023-03-04T04:53:58;97916.88;;;-2.09;81.89
61906;BME280;47863;55.766;37.672;2023-03-04T04:56:24;97927.56;;;-2.01;82.14
61906;BME280;47863;55.766;37.672;2023-03-04T04:58:59;97928.25;;;-1.99;82.28
61906;BME280;47863;55.766;37.672;2023-03-04T05:01:26;97923.72;;;-1.97;82.66
61906;BME280;47863;55.766;37.672;2023-03-04T05:03:52;97927.75;;;-1.93;82.74
61906;BME280;47863;55.766;37.672;2023-03-04T05:06:20;97904.31;;;-2.06;82.42
61906;BME280;47863;55.766;37.672;2023-03-04T05:08:46;97918.38;;;-1.86;82.19
61906;BME280;47863;55.766;37.672;2023-03-04T05:11:12;97914.00;;;-1.85;82.14
61906;BME280;47863;55.766;37.672;2023-03-04T05:13:37;97893.47;;;-2.01;82.05
61906;BME280;47863;55.766;37.672;2023-03-04T05:16:03;97907.59;;;-1.92;81.86
61906;BME280;47863;55.766;37.672;2023-03-04T05:18:29;97922.34;;;-1.70;82.17
61906;BME280;47863;55.766;37.672;2023-03-04T05:20:57;97918.25;;;-1.63;81.63
61906;BME280;47863;55.766;37.672;2023-03-04T05:23:25;97915.03;;;-1.46;81.57
61906;BME280;47863;55.766;37.672;2023-03-04T05:25:51;97923.59;;;-1.44;81.41
61906;BME280;47863;55.766;37.672;2023-03-04T05:28:17;97910.66;;;-1.35;81.24
61906;BME280;47863;55.766;37.672;2023-03-04T05:30:43;97909.56;;;-1.23;80.93
61906;BME280;47863;55.766;37.672;2023-03-04T05:33:10;97886.06;;;-1.25;80.70
61906;BME280;47863;55.766;37.672;2023-03-04T05:35:37;97901.09;;;-0.96;80.76
61906;BME280;47863;55.766;37.672;2023-03-04T05:38:04;97907.38;;;-0.68;80.39
61906;BME280;47863;55.766;37.672;2023-03-04T05:40:30;97902.13;;;-0.48;80.20
61906;BME280;47863;55.766;37.672;2023-03-04T05:42:56;97882.91;;;-0.39;79.69
61906;BME280;47863;55.766;37.672;2023-03-04T05:45:22;97891.88;;;-0.22;79.56
61906;BME280;47863;55.766;37.672;2023-03-04T05:47:48;97879.81;;;-0.05;79.05
61906;BME280;47863;55.766;37.672;2023-03-04T05:50:13;97885.28;;;0.31;78.73
61906;BME280;47863;55.766;37.672;2023-03-04T05:52:39;97860.31;;;0.35;78.19
61906;BME280;47863;55.766;37.672;2023-03-04T05:55:05;97857.78;;;0.43;77.39
61906;BME280;47863;55.766;37.672;2023-03-04T05:57:30;97867.75;;;0.49;77.17
61906;BME280;47863;55.766;37.672;2023-03-04T05:59:56;97859.56;;;0.52;76.97
61906;BME280;47863;55.766;37.672;2023-03-04T06:02:22;97867.50;;;0.43;76.00
61906;BME280;47863;55.766;37.672;2023-03-04T06:04:47;97886.34;;;0.48;76.08
61906;BME280;47863;55.766;37.672;2023-03-04T06:07:13;97880.84;;;0.31;76.02
61906;BME280;47863;55.766;37.672;2023-03-04T06:09:38;97880.03;;;0.21;76.13
61906;BME280;47863;55.766;37.672;2023-03-04T06:12:04;97874.50;;;0.24;76.78
61906;BME280;47863;55.766;37.672;2023-03-04T06:14:29;97880.00;;;0.31;76.30
61906;BME280;47863;55.766;37.672;2023-03-04T06:16:55;97878.63;;;0.27;76.14
61906;BME280;47863;55.766;37.672;2023-03-04T06:19:20;97853.47;;;0.14;76.27
61906;BME280;47863;55.766;37.672;2023-03-04T06:21:46;97853.72;;;0.21;76.30
61906;BME280;47863;55.766;37.672;2023-03-04T06:24:12;97864.66;;;0.26;76.00
61906;BME280;47863;55.766;37.672;2023-03-04T06:26:37;97868.34;;;0.33;76.48
61906;BME280;47863;55.766;37.672;2023-03-04T06:29:04;97865.56;;;0.45;76.41
61906;BME280;47863;55.766;37.672;2023-03-04T06:31:29;97845.56;;;0.52;76.25
61906;BME280;47863;55.766;37.672;2023-03-04T06:33:55;97850.31;;;0.76;76.25
61906;BME280;47863;55.766;37.672;2023-03-04T06:36:20;97826.22;;;0.89;76.02
61906;BME280;47863;55.766;37.672;2023-03-04T06:38:46;97850.63;;;1.18;75.97
61906;BME280;47863;55.766;37.672;2023-03-04T06:41:12;97852.25;;;1.19;75.04
61906;BME280;47863;55.766;37.672;2023-03-04T06:43:38;97834.69;;;1.10;74.55
61906;BME280;47863;55.766;37.672;2023-03-04T06:46:05;97846.09;;;1.11;74.47
61906;BME280;47863;55.766;37.672;2023-03-04T06:48:31;97843.28;;;1.12;74.20
61906;BME280;47863;55.766;37.672;2023-03-04T06:50:57;97840.13;;;1.09;73.12
61906;BME280;47863;55.766;37.672;2023-03-04T06:53:23;97838.31;;;1.09;73.03
61906;BME280;47863;55.766;37.672;2023-03-04T06:55:48;97800.84;;;0.88;72.97
61906;BME280;47863;55.766;37.672;2023-03-04T06:58:14;97827.91;;;1.08;73.42
61906;BME280;47863;55.766;37.672;2023-03-04T07:00:43;97803.03;;;0.92;73.42
61906;BME280;47863;55.766;37.672;2023-03-04T07:03:10;97821.69;;;1.09;73.26
61906;BME280;47863;55.766;37.672;2023-03-04T07:05:37;97808.84;;;1.14;73.26
61906;BME280;47863;55.766;37.672;2023-03-04T07:08:02;97800.72;;;1.25;73.43
61906;BME280;47863;55.766;37.672;2023-03-04T07:10:28;97787.84;;;1.22;72.54
61906;BME280;47863;55.766;37.672;2023-03-04T07:12:54;97802.97;;;1.38;72.42
61906;BME280;47863;55.766;37.672;2023-03-04T07:15:19;97798.59;;;1.47;72.48
61906;BME280;47863;55.766;37.672;2023-03-04T07:17:45;97770.97;;;1.33;72.79
61906;BME280;47863;55.766;37.672;2023-03-04T07:20:10;97758.88;;;1.30;72.58
61906;BME280;47863;55.766;37.672;2023-03-04T07:22:36;97758.59;;;1.33;71.77
61906;BME280;47863;55.766;37.672;2023-03-04T07:25:03;97790.28;;;1.59;71.95
61906;BME280;47863;55.766;37.672;2023-03-04T07:27:29;97728.91;;;1.31;72.03
61906;BME280;47863;55.766;37.672;2023-03-04T07:29:54;97781.31;;;1.70;72.41
61906;BME280;47863;55.766;37.672;2023-03-04T07:32:20;97763.41;;;1.82;72.47
61906;BME280;47863;55.766;37.672;2023-03-04T07:34:45;97778.94;;;2.11;71.78
61906;BME280;47863;55.766;37.672;2023-03-04T07:37:11;97777.63;;;2.15;71.11
61906;BME280;47863;55.766;37.672;2023-03-04T07:39:36;97756.63;;;2.06;71.30
61906;BME280;47863;55.766;37.672;2023-03-04T07:42:02;97752.41;;;1.95;71.73
61906;BME280;47863;55.766;37.672;2023-03-04T07:44:28;97739.38;;;1.67;71.40
61906;BME280;47863;55.766;37.672;2023-03-04T07:46:53;97736.34;;;1.36;72.00
61906;BME280;47863;55.766;37.672;2023-03-04T07:49:19;97762.31;;;1.23;72.51
61906;BME280;47863;55.766;37.672;2023-03-04T07:51:44;97770.59;;;1.10;73.23
61906;BME280;47863;55.766;37.672;2023-03-04T07:54:10;97763.63;;;0.91;73.67
61906;BME280;47863;55.766;37.672;2023-03-04T07:56:36;97735.91;;;0.69;74.40
61906;BME280;47863;55.766;37.672;2023-03-04T07:59:02;97750.03;;;0.77;74.54
61906;BME280;47863;55.766;37.672;2023-03-04T08:01:30;97728.25;;;0.75;75.26
61906;BME280;47863;55.766;37.672;2023-03-04T08:03:57;97740.38;;;1.04;75.01
61906;BME280;47863;55.766;37.672;2023-03-04T08:06:24;97740.75;;;1.09;75.13
61906;BME280;47863;55.766;37.672;2023-03-04T08:08:56;97743.25;;;1.29;74.91
61906;BME280;47863;55.766;37.672;2023-03-04T08:11:22;97739.41;;;1.23;74.61
61906;BME280;47863;55.766;37.672;2023-03-04T08:13:48;97725.38;;;1.23;74.65
61906;BME280;47863;55.766;37.672;2023-03-04T08:16:15;97746.75;;;1.37;74.54
61906;BME280;47863;55.766;37.672;2023-03-04T08:18:43;97717.28;;;1.24;74.71
61906;BME280;47863;55.766;37.672;2023-03-04T08:21:10;97735.44;;;1.45;74.41
61906;BME280;47863;55.766;37.672;2023-03-04T08:23:36;97722.53;;;1.60;74.10
61906;BME280;47863;55.766;37.672;2023-03-04T08:26:28;97725.97;;;1.61;73.98
61906;BME280;47863;55.766;37.672;2023-03-04T08:28:52;97716.97;;;1.71;73.77
61906;BME280;47863;55.766;37.672;2023-03-04T08:31:18;97723.47;;;1.85;73.65
61906;BME280;47863;55.766;37.672;2023-03-04T08:33:44;97709.16;;;1.88;73.41
61906;BME280;47863;55.766;37.672;2023-03-04T08:36:11;97714.66;;;2.03;73.02
61906;BME280;47863;55.766;37.672;2023-03-04T08:38:37;97678.44;;;1.87;73.00
61906;BME280;47863;55.766;37.672;2023-03-04T08:41:02;97716.34;;;2.04;72.10
61906;BME280;47863;55.766;37.672;2023-03-04T08:43:29;97693.91;;;1.82;72.17
61906;BME280;47863;55.766;37.672;2023-03-04T08:45:55;97720.16;;;1.83;72.23
61906;BME280;47863;55.766;37.672;2023-03-04T08:48:21;97649.81;;;1.39;72.26
61906;BME280;47863;55.766;37.672;2023-03-04T08:50:50;97711.91;;;1.78;72.48
61906;BME280;47863;55.766;37.672;2023-03-04T08:53:18;97690.22;;;1.66;72.23
61906;BME280;47863;55.766;37.672;2023-03-04T08:55:43;97702.69;;;1.82;71.72
61906;BME280;47863;55.766;37.672;2023-03-04T08:58:10;97686.53;;;1.85;71.40
61906;BME280;47863;55.766;37.672;2023-03-04T09:00:37;97695.00;;;1.97;71.39
61906;BME280;47863;55.766;37.672;2023-03-04T09:03:03;97690.75;;;2.04;71.36
61906;BME280;47863;55.766;37.672;2023-03-04T09:05:30;97662.19;;;2.00;71.50
61906;BME280;47863;55.766;37.672;2023-03-04T09:07:56;97684.88;;;2.27;71.72
61906;BME280;47863;55.766;37.672;2023-03-04T09:10:22;97675.03;;;2.45;71.58
61906;BME280;47863;55.766;37.672;2023-03-04T09:12:48;97657.38;;;2.62;71.22
61906;BME280;47863;55.766;37.672;2023-03-04T09:15:13;97659.22;;;2.78;71.18
61906;BME280;47863;55.766;37.672;2023-03-04T09:17:39;97679.91;;;2.83;70.49
61906;BME280;47863;55.766;37.672;2023-03-04T09:20:06;97662.53;;;2.80;70.41
61906;BME280;47863;55.766;37.672;2023-03-04T09:22:33;97649.31;;;3.13;70.82
61906;BME280;47863;55.766;37.672;2023-03-04T09:24:58;97643.94;;;4.41;69.87
61906;BME280;47863;55.766;37.672;2023-03-04T09:27:24;97635.06;;;5.86;68.43
61906;BME280;47863;55.766;37.672;2023-03-04T09:29:49;97626.69;;;6.70;66.54
61906;BME280;47863;55.766;37.672;2023-03-04T09:32:15;97626.38;;;7.92;65.13
61906;BME280;47863;55.766;37.672;2023-03-04T09:34:40;97606.78;;;8.88;62.11
61906;BME280;47863;55.766;37.672;2023-03-04T09:37:06;97621.59;;;9.04;60.58
61906;BME280;47863;55.766;37.672;2023-03-04T09:39:31;97616.69;;;9.08;59.81
61906;BME280;47863;55.766;37.672;2023-03-04T09:41:57;97609.88;;;8.72;60.82
61906;BME280;47863;55.766;37.672;2023-03-04T09:44:32;97586.50;;;7.71;57.90
61906;BME280;47863;55.766;37.672;2023-03-04T09:47:03;97598.72;;;6.81;57.36
61906;BME280;47863;55.766;37.672;2023-03-04T09:49:30;97590.47;;;5.96;59.23
61906;BME280;47863;55.766;37.672;2023-03-04T09:54:49;97589.22;;;4.71;61.95
61906;BME280;47863;55.766;37.672;2023-03-04T10:02:44;97551.31;;;3.06;63.99
61906;BME280;47863;55.766;37.672;2023-03-04T10:05:23;97566.66;;;2.86;64.57
61906;BME280;47863;55.766;37.672;2023-03-04T10:10:55;97560.41;;;2.54;66.04
61906;BME280;47863;55.766;37.672;2023-03-04T10:13:30;97551.50;;;2.72;65.58
61906;BME280;47863;55.766;37.672;2023-03-04T10:16:02;97545.84;;;2.91;64.42
61906;BME280;47863;55.766;37.672;2023-03-04T10:18:43;97547.25;;;3.35;64.49
61906;BME280;47863;55.766;37.672;2023-03-04T10:21:33;97539.25;;;3.83;63.83
61906;BME280;47863;55.766;37.672;2023-03-04T10:24:08;97495.25;;;4.05;64.34
61906;BME280;47863;55.766;37.672;2023-03-04T10:26:35;97529.19;;;4.55;63.69
61906;BME280;47863;55.766;37.672;2023-03-04T10:29:00;97504.50;;;4.55;63.33
61906;BME280;47863;55.766;37.672;2023-03-04T10:31:32;97526.91;;;4.52;61.94
61906;BME280;47863;55.766;37.672;2023-03-04T10:34:03;97519.53;;;4.16;62.68
61906;BME280;47863;55.766;37.672;2023-03-04T10:36:32;97517.84;;;3.92;63.74
61906;BME280;47863;55.766;37.672;2023-03-04T10:41:31;97512.66;;;3.76;63.92
61906;BME280;47863;55.766;37.672;2023-03-04T10:44:03;97511.47;;;3.47;63.26
61906;BME280;47863;55.766;37.672;2023-03-04T10:46:30;97498.56;;;3.05;63.85
61906;BME280;47863;55.766;37.672;2023-03-04T10:48:56;97495.97;;;2.80;64.59
61906;BME280;47863;55.766;37.672;2023-03-04T10:51:26;97482.78;;;2.64;64.96
61906;BME280;47863;55.766;37.672;2023-03-04T10:54:09;97488.72;;;2.66;65.76
61906;BME280;47863;55.766;37.672;2023-03-04T10:57:02;97495.47;;;2.85;65.65
61906;BME280;47863;55.766;37.672;2023-03-04T11:04:48;97460.66;;;2.48;66.87
61906;BME280;47863;55.766;37.672;2023-03-04T11:07:14;97469.91;;;2.44;66.75
61906;BME280;47863;55.766;37.672;2023-03-04T11:09:43;97469.25;;;2.34;67.82
61906;BME280;47863;55.766;37.672;2023-03-04T11:12:11;97461.00;;;2.12;68.36
61906;BME280;47863;55.766;37.672;2023-03-04T11:14:40;97442.31;;;1.65;68.96
61906;BME280;47863;55.766;37.672;2023-03-04T11:19:48;97457.22;;;1.31;70.44
61906;BME280;47863;55.766;37.672;2023-03-04T11:22:17;97459.84;;;1.23;71.61
61906;BME280;47863;55.766;37.672;2023-03-04T11:24:54;97443.78;;;1.08;71.74
61906;BME280;47863;55.766;37.672;2023-03-04T11:27:36;97453.25;;;1.19;72.34
61906;BME280;47863;55.766;37.672;2023-03-04T11:33:27;97371.06;;;0.89;71.35
61906;BME280;47863;55.766;37.672;2023-03-04T11:38:38;97424.31;;;1.52;71.27
61906;BME280;47863;55.766;37.672;2023-03-04T11:41:10;97428.78;;;1.59;71.03
61906;BME280;47863;55.766;37.672;2023-03-04T11:43:40;97423.50;;;1.59;71.58
61906;BME280;47863;55.766;37.672;2023-03-04T12:00:37;97411.47;;;0.64;75.75
61906;BME280;47863;55.766;37.672;2023-03-04T12:06:11;97393.22;;;0.36;76.70
61906;BME280;47863;55.766;37.672;2023-03-04T12:11:18;97389.13;;;0.15;77.42
61906;BME280;47863;55.766;37.672;2023-03-04T12:20:26;97369.88;;;0.15;78.76
61906;BME280;47863;55.766;37.672;2023-03-04T12:53:31;97323.50;;;-0.04;82.62
61906;BME280;47863;55.766;37.672;2023-03-04T12:56:02;97300.72;;;-0.22;82.73
61906;BME280;47863;55.766;37.672;2023-03-04T12:58:30;97271.22;;;-0.33;83.09
61906;BME280;47863;55.766;37.672;2023-03-04T13:01:17;97318.72;;;-0.09;83.17
61906;BME280;47863;55.766;37.672;2023-03-04T13:03:56;97316.91;;;-0.08;83.84
61906;BME280;47863;55.766;37.672;2023-03-04T13:14:23;97281.31;;;-0.21;84.72
61906;BME280;47863;55.766;37.672;2023-03-04T13:16:52;97290.91;;;-0.11;85.87
61906;BME280;47863;55.766;37.672;2023-03-04T13:19:44;97277.38;;;-0.16;85.58
61906;BME280;47863;55.766;37.672;2023-03-04T13:25:39;97278.69;;;-0.21;85.34
61906;BME280;47863;55.766;37.672;2023-03-04T13:38:35;97256.66;;;-0.19;86.23
61906;BME280;47863;55.766;37.672;2023-03-04T13:41:20;97246.16;;;-0.19;85.66
61906;BME280;47863;55.766;37.672;2023-03-04T13:51:24;97235.28;;;-0.16;86.18
61906;BME280;47863;55.766;37.672;2023-03-04T13:56:29;97229.22;;;-0.17;86.53
61906;BME280;47863;55.766;37.672;2023-03-04T14:06:54;97165.44;;;-0.45;86.30
61906;BME280;47863;55.766;37.672;2023-03-04T14:09:28;97211.09;;;-0.20;86.40
61906;BME280;47863;55.766;37.672;2023-03-04T14:12:00;97194.75;;;-0.32;85.82
61906;BME280;47863;55.766;37.672;2023-03-04T14:14:31;97197.13;;;-0.21;85.86
61906;BME280;47863;55.766;37.672;2023-03-04T14:17:04;97166.59;;;-0.40;86.36
61906;BME280;47863;55.766;37.672;2023-03-04T14:19:44;97188.56;;;-0.23;86.29
61906;BME280;47863;55.766;37.672;2023-03-04T14:27:34;97168.41;;;-0.40;86.53
61906;BME280;47863;55.766;37.672;2023-03-04T14:30:19;97180.94;;;-0.34;86.49
61906;BME280;47863;55.766;37.672;2023-03-04T14:32:46;97166.81;;;-0.33;86.88
61906;BME280;47863;55.766;37.672;2023-03-04T14:37:59;97138.13;;;-0.52;87.75
61906;BME280;47863;55.766;37.672;2023-03-04T14:40:35;97147.03;;;-0.45;87.85
61906;BME280;47863;55.766;37.672;2023-03-04T14:43:09;97150.34;;;-0.43;88.28
61906;BME280;47863;55.766;37.672;2023-03-04T14:45:36;97156.28;;;-0.33;88.32
61906;BME280;47863;55.766;37.672;2023-03-04T14:48:05;97145.78;;;-0.33;88.88
61906;BME280;47863;55.766;37.672;2023-03-04T14:50:31;97150.22;;;-0.33;89.00
61906;BME280;47863;55.766;37.672;2023-03-04T14:53:24;97156.44;;;-0.34;88.91
61906;BME280;47863;55.766;37.672;2023-03-04T14:56:09;97162.72;;;-0.35;88.62
61906;BME280;47863;55.766;37.672;2023-03-04T14:58:50;97146.06;;;-0.36;88.52
61906;BME280;47863;55.766;37.672;2023-03-04T15:01:31;97160.22;;;-0.37;88.95
61906;BME280;47863;55.766;37.672;2023-03-04T15:06:29;97134.59;;;-0.35;89.61
61906;BME280;47863;55.766;37.672;2023-03-04T15:08:56;97140.00;;;-0.36;89.68
61906;BME280;47863;55.766;37.672;2023-03-04T15:11:26;97123.19;;;-0.44;89.46
61906;BME280;47863;55.766;37.672;2023-03-04T15:13:54;97128.81;;;-0.38;89.62
61906;BME280;47863;55.766;37.672;2023-03-04T15:16:23;97128.00;;;-0.39;89.83
61906;BME280;47863;55.766;37.672;2023-03-04T15:19:26;97124.69;;;-0.41;89.38